Terminal Aerodrome Forecast
Issued by NWS

Home | Current Version | Previous Version | Text Only | Print | Product List | Glossary Off
Versions: 1 2 3 4 5 6 7 8 9 10 11 12

935
FTUS43 KMPX 221120
TAFAXN
TAF
KAXN 221120Z 2212/2312 VRB04KT P6SM SKC
     FM221400 15005KT P6SM SKC
     FM221900 17007KT P6SM SKC
     FM230600 19004KT P6SM SCT250=

USA.gov is the U.S. government's official web portal to all federal, state and local government web resources and services.